sensor_id;sensor_type;location;lat;lon;timestamp;temperature;humidity
26049;DHT22;13822;51.568;5.086;2022-09-30T05:24:12;7.50;99.90
26049;DHT22;13822;51.568;5.086;2022-09-30T05:29:14;7.50;99.90
26049;DHT22;13822;51.568;5.086;2022-09-30T05:34:18;7.50;99.90
26049;DHT22;13822;51.568;5.086;2022-09-30T05:39:21;7.40;99.90
26049;DHT22;13822;51.568;5.086;2022-09-30T05:44:24;7.40;99.90
26049;DHT22;13822;51.568;5.086;2022-09-30T05:49:26;7.40;99.90
26049;DHT22;13822;51.568;5.086;2022-09-30T05:54:28;7.40;99.90
26049;DHT22;13822;51.568;5.086;2022-09-30T05:59:30;7.40;99.90
26049;DHT22;13822;51.568;5.086;2022-09-30T06:04:32;7.50;99.90
26049;DHT22;13822;51.568;5.086;2022-09-30T06:09:34;7.50;99.90
26049;DHT22;13822;51.568;5.086;2022-09-30T06:14:36;7.50;99.90
26049;DHT22;13822;51.568;5.086;2022-09-30T06:19:38;7.60;99.90
26049;DHT22;13822;51.568;5.086;2022-09-30T06:24:39;7.70;99.90
26049;DHT22;13822;51.568;5.086;2022-09-30T06:29:42;7.70;99.90
26049;DHT22;13822;51.568;5.086;2022-09-30T06:34:43;7.70;99.90
26049;DHT22;13822;51.568;5.086;2022-09-30T06:39:45;7.80;99.90
26049;DHT22;13822;51.568;5.086;2022-09-30T06:44:47;7.80;99.90
26049;DHT22;13822;51.568;5.086;2022-09-30T06:49:54;7.80;99.90
26049;DHT22;13822;51.568;5.086;2022-09-30T06:54:59;7.90;99.90
26049;DHT22;13822;51.568;5.086;2022-09-30T07:00:01;7.90;99.90
26049;DHT22;13822;51.568;5.086;2022-09-30T07:05:04;7.90;99.90
26049;DHT22;13822;51.568;5.086;2022-09-30T07:10:06;8.00;99.90
26049;DHT22;13822;51.568;5.086;2022-09-30T07:15:08;8.10;99.90
26049;DHT22;13822;51.568;5.086;2022-09-30T07:20:14;8.10;99.90
26049;DHT22;13822;51.568;5.086;2022-09-30T07:25:16;8.20;99.90
26049;DHT22;13822;51.568;5.086;2022-09-30T07:30:18;8.30;99.90
26049;DHT22;13822;51.568;5.086;2022-09-30T07:35:27;8.30;99.90
26049;DHT22;13822;51.568;5.086;2022-09-30T07:40:29;8.40;99.90
26049;DHT22;13822;51.568;5.086;2022-09-30T07:45:31;8.50;99.90
26049;DHT22;13822;51.568;5.086;2022-09-30T07:50:33;8.50;99.90
26049;DHT22;13822;51.568;5.086;2022-09-30T07:55:35;8.70;99.90
26049;DHT22;13822;51.568;5.086;2022-09-30T08:00:37;8.80;99.90
26049;DHT22;13822;51.568;5.086;2022-09-30T08:05:43;8.90;99.90
26049;DHT22;13822;51.568;5.086;2022-09-30T08:10:45;9.00;99.90
26049;DHT22;13822;51.568;5.086;2022-09-30T08:15:47;9.10;99.90
26049;DHT22;13822;51.568;5.086;2022-09-30T08:20:49;9.20;99.90
26049;DHT22;13822;51.568;5.086;2022-09-30T08:25:51;9.30;99.90
26049;DHT22;13822;51.568;5.086;2022-09-30T08:30:53;9.50;99.90
26049;DHT22;13822;51.568;5.086;2022-09-30T08:35:55;9.60;99.90
26049;DHT22;13822;51.568;5.086;2022-09-30T08:46:10;10.00;99.90
26049;DHT22;13822;51.568;5.086;2022-09-30T08:51:30;10.20;99.90
26049;DHT22;13822;51.568;5.086;2022-09-30T08:56:36;10.40;99.90
26049;DHT22;13822;51.568;5.086;2022-09-30T09:01:39;10.60;99.90
26049;DHT22;13822;51.568;5.086;2022-09-30T09:12:00;11.00;99.90
26049;DHT22;13822;51.568;5.086;2022-09-30T09:17:31;11.30;99.90
26049;DHT22;13822;51.568;5.086;2022-09-30T09:22:35;11.50;99.90
26049;DHT22;13822;51.568;5.086;2022-09-30T09:27:43;11.80;99.90
26049;DHT22;13822;51.568;5.086;2022-09-30T09:32:50;12.00;99.90
26049;DHT22;13822;51.568;5.086;2022-09-30T09:37:55;12.20;99.90
26049;DHT22;13822;51.568;5.086;2022-09-30T09:48:44;12.60;99.90
26049;DHT22;13822;51.568;5.086;2022-09-30T09:53:52;12.90;99.90
26049;DHT22;13822;51.568;5.086;2022-09-30T09:59:12;13.10;99.90
26049;DHT22;13822;51.568;5.086;2022-09-30T10:04:22;13.40;99.90
26049;DHT22;13822;51.568;5.086;2022-09-30T10:09:31;13.70;99.90
26049;DHT22;13822;51.568;5.086;2022-09-30T10:14:38;13.90;99.90
26049;DHT22;13822;51.568;5.086;2022-09-30T10:19:51;14.10;99.90
26049;DHT22;13822;51.568;5.086;2022-09-30T10:25:08;14.30;99.90
26049;DHT22;13822;51.568;5.086;2022-09-30T10:30:33;14.60;99.90
26049;DHT22;13822;51.568;5.086;2022-09-30T10:35:53;15.00;99.90
26049;DHT22;13822;51.568;5.086;2022-09-30T10:40:56;15.40;99.90
26049;DHT22;13822;51.568;5.086;2022-09-30T10:45:59;15.80;99.90
26049;DHT22;13822;51.568;5.086;2022-09-30T10:51:31;16.20;99.90
26049;DHT22;13822;51.568;5.086;2022-09-30T10:56:45;16.70;99.90
26049;DHT22;13822;51.568;5.086;2022-09-30T11:07:35;17.30;99.90
26049;DHT22;13822;51.568;5.086;2022-09-30T11:18:30;17.60;99.90
26049;DHT22;13822;51.568;5.086;2022-09-30T11:23:36;17.90;99.90
26049;DHT22;13822;51.568;5.086;2022-09-30T11:34:25;18.30;99.90
26049;DHT22;13822;51.568;5.086;2022-09-30T11:44:47;18.60;99.90
26049;DHT22;13822;51.568;5.086;2022-09-30T12:00:46;18.50;99.10
26049;DHT22;13822;51.568;5.086;2022-09-30T12:05:55;18.30;99.90
26049;DHT22;13822;51.568;5.086;2022-09-30T12:16:38;17.90;99.90
26049;DHT22;13822;51.568;5.086;2022-09-30T12:21:57;18.10;99.90
26049;DHT22;13822;51.568;5.086;2022-09-30T12:27:02;18.10;99.90
26049;DHT22;13822;51.568;5.086;2022-09-30T12:32:49;17.90;99.90
26049;DHT22;13822;51.568;5.086;2022-09-30T12:48:35;17.90;97.50
26049;DHT22;13822;51.568;5.086;2022-09-30T12:53:39;17.90;99.90
26049;DHT22;13822;51.568;5.086;2022-09-30T12:58:46;17.90;99.90
26049;DHT22;13822;51.568;5.086;2022-09-30T13:09:15;17.80;98.90
26049;DHT22;13822;51.568;5.086;2022-09-30T13:29:58;18.50;94.70
26049;DHT22;13822;51.568;5.086;2022-09-30T13:35:01;18.50;93.00
26049;DHT22;13822;51.568;5.086;2022-09-30T13:40:03;18.40;99.90
26049;DHT22;13822;51.568;5.086;2022-09-30T13:55:40;17.90;96.20
26049;DHT22;13822;51.568;5.086;2022-09-30T14:00:50;18.00;99.90
26049;DHT22;13822;51.568;5.086;2022-09-30T14:06:00;18.30;94.40
26049;DHT22;13822;51.568;5.086;2022-09-30T14:21:42;18.50;90.00
26049;DHT22;13822;51.568;5.086;2022-09-30T14:32:13;18.40;91.20
26049;DHT22;13822;51.568;5.086;2022-09-30T14:42:35;18.20;86.50
26049;DHT22;13822;51.568;5.086;2022-09-30T14:47:41;18.40;93.10
26049;DHT22;13822;51.568;5.086;2022-09-30T14:52:46;18.70;92.60
26049;DHT22;13822;51.568;5.086;2022-09-30T14:57:50;18.80;90.10
26049;DHT22;13822;51.568;5.086;2022-09-30T15:02:53;19.00;92.20
26049;DHT22;13822;51.568;5.086;2022-09-30T15:07:55;19.10;93.20
26049;DHT22;13822;51.568;5.086;2022-09-30T15:12:57;19.20;86.60
26049;DHT22;13822;51.568;5.086;2022-09-30T15:17:59;19.20;85.30
26049;DHT22;13822;51.568;5.086;2022-09-30T15:23:05;19.20;80.70
26049;DHT22;13822;51.568;5.086;2022-09-30T15:28:15;19.30;84.60
26049;DHT22;13822;51.568;5.086;2022-09-30T15:33:18;19.30;86.80
26049;DHT22;13822;51.568;5.086;2022-09-30T15:38:23;19.20;78.60
26049;DHT22;13822;51.568;5.086;2022-09-30T15:43:33;19.00;84.90
26049;DHT22;13822;51.568;5.086;2022-09-30T15:48:37;18.90;82.80
26049;DHT22;13822;51.568;5.086;2022-09-30T16:14:30;18.20;79.90
26049;DHT22;13822;51.568;5.086;2022-09-30T16:19:32;18.00;85.00
26049;DHT22;13822;51.568;5.086;2022-09-30T16:29:37;17.50;90.50
26049;DHT22;13822;51.568;5.086;2022-09-30T16:34:39;17.30;88.00
26049;DHT22;13822;51.568;5.086;2022-09-30T16:39:41;17.10;94.50
26049;DHT22;13822;51.568;5.086;2022-09-30T16:44:43;16.90;93.50
26049;DHT22;13822;51.568;5.086;2022-09-30T16:49:45;16.70;94.60
26049;DHT22;13822;51.568;5.086;2022-09-30T16:54:48;16.60;98.70
26049;DHT22;13822;51.568;5.086;2022-09-30T16:59:50;16.60;99.90
26049;DHT22;13822;51.568;5.086;2022-09-30T17:04:51;16.40;99.90
26049;DHT22;13822;51.568;5.086;2022-09-30T17:09:53;16.20;99.90
26049;DHT22;13822;51.568;5.086;2022-09-30T17:14:55;16.10;99.90
26049;DHT22;13822;51.568;5.086;2022-09-30T17:19:58;16.10;99.90
26049;DHT22;13822;51.568;5.086;2022-09-30T17:25:01;15.90;99.90
26049;DHT22;13822;51.568;5.086;2022-09-30T17:30:03;15.80;99.90
26049;DHT22;13822;51.568;5.086;2022-09-30T17:35:07;15.80;99.90
26049;DHT22;13822;51.568;5.086;2022-09-30T17:40:09;15.70;99.90
26049;DHT22;13822;51.568;5.086;2022-09-30T17:45:30;15.60;99.90
26049;DHT22;13822;51.568;5.086;2022-09-30T17:50:33;15.50;99.90
26049;DHT22;13822;51.568;5.086;2022-09-30T17:55:39;15.40;99.90
26049;DHT22;13822;51.568;5.086;2022-09-30T18:00:41;15.30;99.90
